createdAt,value
2022-12-18T00:01:22.795Z,13.77
2022-12-18T00:04:27.591Z,12.35
2022-12-18T00:07:30.023Z,13.80
2022-12-18T00:10:34.315Z,13.10
2022-12-18T00:13:38.300Z,12.37
2022-12-18T00:16:45.110Z,12.95
2022-12-18T00:19:48.409Z,13.55
2022-12-18T00:22:51.899Z,13.38
2022-12-18T00:25:54.898Z,13.98
2022-12-18T00:29:01.989Z,14.75
2022-12-18T00:32:07.086Z,13.13
2022-12-18T00:35:10.191Z,14.27
2022-12-18T00:38:13.058Z,13.52
2022-12-18T00:41:38.967Z,13.43
2022-12-18T00:44:42.240Z,13.32
2022-12-18T00:47:45.053Z,12.63
2022-12-18T00:50:49.918Z,13.00
2022-12-18T00:53:53.582Z,12.85
2022-12-18T00:56:56.698Z,12.57
2022-12-18T00:59:59.700Z,13.45
2022-12-18T01:03:02.646Z,13.60
2022-12-18T01:06:08.474Z,12.48
2022-12-18T01:09:11.080Z,12.18
2022-12-18T01:12:14.141Z,13.18
2022-12-18T01:15:18.879Z,11.88
2022-12-18T01:18:21.811Z,12.00
2022-12-18T01:21:25.408Z,13.75
2022-12-18T01:24:29.223Z,11.48
2022-12-18T01:27:32.045Z,11.93
2022-12-18T01:30:36.096Z,12.65
2022-12-18T01:33:40.450Z,12.13
2022-12-18T01:36:43.934Z,12.50
2022-12-18T01:39:46.786Z,11.90
2022-12-18T01:42:54.207Z,11.52
2022-12-18T01:46:00.791Z,11.48
2022-12-18T01:49:04.221Z,11.10
2022-12-18T01:52:07.296Z,13.32
2022-12-18T01:55:14.761Z,11.98
2022-12-18T01:58:20.405Z,12.90
2022-12-18T02:01:25.665Z,13.75
2022-12-18T02:04:31.029Z,11.35
2022-12-18T02:08:09.124Z,12.98
2022-12-18T02:11:25.755Z,13.27
2022-12-18T02:14:49.508Z,11.95
2022-12-18T02:17:59.587Z,11.55
2022-12-18T02:21:14.911Z,12.68
2022-12-18T02:24:23.469Z,12.70
2022-12-18T02:27:28.809Z,13.43
2022-12-18T02:30:36.345Z,12.35
2022-12-18T02:33:40.694Z,12.10
2022-12-18T02:36:46.916Z,12.65
2022-12-18T02:39:53.560Z,12.13
2022-12-18T02:43:07.741Z,12.02
2022-12-18T02:46:35.048Z,11.70
2022-12-18T02:49:57.268Z,12.13
2022-12-18T02:53:17.608Z,13.75
2022-12-18T02:56:27.797Z,12.23
2022-12-18T02:59:40.028Z,12.50
2022-12-18T03:02:54.100Z,12.57
2022-12-18T03:06:16.215Z,11.23
2022-12-18T03:09:28.019Z,12.18
2022-12-18T03:12:35.587Z,12.02
2022-12-18T03:15:43.477Z,11.52
2022-12-18T03:18:58.899Z,11.87
2022-12-18T03:22:05.884Z,11.82
2022-12-18T03:25:13.868Z,12.35
2022-12-18T03:28:22.226Z,13.50
2022-12-18T03:31:28.763Z,11.80
2022-12-18T03:34:38.314Z,12.90
2022-12-18T03:37:41.931Z,12.37
2022-12-18T03:40:54.102Z,13.52
2022-12-18T03:44:14.404Z,11.82
2022-12-18T03:47:26.738Z,12.75
2022-12-18T03:50:47.920Z,13.67
2022-12-18T03:54:01.639Z,14.87
2022-12-18T03:57:26.188Z,12.52
2022-12-18T04:00:32.855Z,12.13
2022-12-18T04:03:39.358Z,14.15
2022-12-18T04:06:44.817Z,11.93
2022-12-18T04:09:50.105Z,13.32
2022-12-18T04:12:58.213Z,11.73
2022-12-18T04:16:02.476Z,13.43
2022-12-18T04:19:05.845Z,13.43
2022-12-18T04:22:11.499Z,13.83
2022-12-18T04:25:15.343Z,13.52
2022-12-18T04:28:23.276Z,13.35
2022-12-18T04:31:26.178Z,14.77
2022-12-18T04:34:30.135Z,14.87
2022-12-18T04:37:33.738Z,14.00
2022-12-18T04:40:38.184Z,14.07
2022-12-18T04:43:41.784Z,12.88
2022-12-18T04:46:45.394Z,13.80
2022-12-18T04:49:49.378Z,13.75
2022-12-18T04:52:52.677Z,14.00
2022-12-18T04:56:10.678Z,12.90
2022-12-18T04:59:14.532Z,13.38
2022-12-18T05:02:17.188Z,13.80
2022-12-18T05:05:20.660Z,12.35
2022-12-18T05:08:25.637Z,14.57
2022-12-18T05:11:28.515Z,13.68
2022-12-18T05:14:31.341Z,13.07
2022-12-18T05:17:34.160Z,15.32
2022-12-18T05:20:37.255Z,12.13
2022-12-18T05:23:40.836Z,12.67
2022-12-18T05:26:44.191Z,14.52
2022-12-18T05:29:47.985Z,13.07
2022-12-18T05:32:50.640Z,14.37
2022-12-18T05:35:56.245Z,13.50
2022-12-18T05:38:59.207Z,13.27
2022-12-18T05:42:03.487Z,13.75
2022-12-18T05:45:08.730Z,13.32
2022-12-18T05:48:13.040Z,12.88
2022-12-18T05:51:24.935Z,14.70
2022-12-18T05:54:32.144Z,13.87
2022-12-18T05:57:35.125Z,15.23
2022-12-18T06:00:42.778Z,15.02
2022-12-18T06:03:46.655Z,14.03
2022-12-18T06:06:50.475Z,15.50
2022-12-18T06:09:53.772Z,13.60
2022-12-18T06:12:56.427Z,14.38
2022-12-18T06:16:07.152Z,13.95
2022-12-18T06:19:18.190Z,15.82
2022-12-18T06:22:21.689Z,15.13
2022-12-18T06:25:26.586Z,15.00
2022-12-18T06:28:32.846Z,16.75
2022-12-18T06:31:36.465Z,16.58
2022-12-18T06:34:39.886Z,17.33
2022-12-18T06:37:43.148Z,16.80
2022-12-18T06:40:51.646Z,16.48
2022-12-18T06:43:59.342Z,16.17
2022-12-18T06:47:04.862Z,15.27
2022-12-18T06:50:12.193Z,15.35
2022-12-18T06:53:15.977Z,17.35
2022-12-18T06:56:20.145Z,16.77
2022-12-18T06:59:23.088Z,17.08
2022-12-18T07:02:27.896Z,17.37
2022-12-18T07:05:34.065Z,17.77
2022-12-18T07:08:39.004Z,20.35
2022-12-18T07:11:46.859Z,23.20
2022-12-18T07:14:50.189Z,22.50
2022-12-18T07:17:56.175Z,24.85
2022-12-18T07:21:05.565Z,19.58
2022-12-18T07:24:16.946Z,18.55
2022-12-18T07:27:21.169Z,19.87
2022-12-18T07:30:25.003Z,21.08
2022-12-18T07:33:32.896Z,22.35
2022-12-18T07:36:36.335Z,23.27
2022-12-18T07:39:50.063Z,22.40
2022-12-18T07:42:55.763Z,21.00
2022-12-18T07:46:01.072Z,18.25
2022-12-18T07:49:06.878Z,23.50
2022-12-18T07:52:10.676Z,30.15
2022-12-18T07:55:13.496Z,22.70
2022-12-18T07:58:24.799Z,20.60
2022-12-18T08:01:40.944Z,19.62
2022-12-18T08:04:55.910Z,22.15
2022-12-18T08:08:03.670Z,24.75
2022-12-18T08:11:10.015Z,22.05
2022-12-18T08:14:13.309Z,20.33
2022-12-18T08:17:17.561Z,20.40
2022-12-18T08:20:27.891Z,18.90
2022-12-18T08:23:32.012Z,20.90
2022-12-18T08:26:40.059Z,20.83
2022-12-18T08:29:46.478Z,18.53
2022-12-18T08:33:02.008Z,19.40
2022-12-18T08:36:06.626Z,19.77
2022-12-18T08:39:14.057Z,19.58
2022-12-18T08:42:37.530Z,19.37
2022-12-18T08:45:43.037Z,21.30
2022-12-18T08:48:57.183Z,20.07
2022-12-18T08:52:01.087Z,20.17
2022-12-18T08:55:04.535Z,21.37
2022-12-18T08:58:08.901Z,21.37
2022-12-18T09:01:17.525Z,19.70
2022-12-18T09:04:30.749Z,20.70
2022-12-18T09:07:38.434Z,20.12
2022-12-18T09:10:53.845Z,19.12
2022-12-18T09:13:58.956Z,17.85
2022-12-18T09:17:09.484Z,17.67
2022-12-18T09:20:15.022Z,17.80
2022-12-18T09:23:20.835Z,17.60
2022-12-18T09:26:36.893Z,16.55
2022-12-18T09:29:54.064Z,16.67
2022-12-18T09:33:04.370Z,16.67
2022-12-18T09:36:11.847Z,17.53
2022-12-18T09:39:16.143Z,19.15
2022-12-18T09:42:23.268Z,17.67
2022-12-18T09:45:30.247Z,17.17
2022-12-18T09:48:51.791Z,16.70
2022-12-18T09:52:09.716Z,15.97
2022-12-18T09:55:41.309Z,17.35
2022-12-18T09:59:04.790Z,17.30
2022-12-18T10:02:20.178Z,19.60
2022-12-18T10:05:49.163Z,20.50
2022-12-18T10:08:58.138Z,20.77
2022-12-18T10:12:24.881Z,20.42
2022-12-18T10:15:35.282Z,21.87
2022-12-18T10:19:00.853Z,21.62
2022-12-18T10:22:21.873Z,22.07
2022-12-18T10:25:37.880Z,21.83
2022-12-18T10:28:46.854Z,19.25
2022-12-18T10:31:51.156Z,19.55
2022-12-18T10:35:02.376Z,17.58
2022-12-18T10:38:18.022Z,16.93
2022-12-18T10:41:27.537Z,16.92
2022-12-18T10:44:38.776Z,16.00
2022-12-18T10:47:55.768Z,15.30
2022-12-18T10:51:12.107Z,15.98
2022-12-18T10:54:34.036Z,16.23
2022-12-18T10:57:42.804Z,16.50
2022-12-18T11:00:45.655Z,17.45
2022-12-18T11:04:01.663Z,14.70
2022-12-18T11:07:12.352Z,18.65
2022-12-18T11:10:20.586Z,19.00
2022-12-18T11:13:29.099Z,16.87
2022-12-18T11:17:03.035Z,18.10
2022-12-18T11:20:30.232Z,19.25
2022-12-18T11:23:40.994Z,18.33
2022-12-18T11:26:45.467Z,17.67
2022-12-18T11:29:56.810Z,18.58
2022-12-18T11:33:19.907Z,21.15
2022-12-18T11:36:26.882Z,18.00
2022-12-18T11:39:42.168Z,17.02
2022-12-18T11:43:09.928Z,18.20
2022-12-18T11:46:21.578Z,16.90
2022-12-18T11:49:36.281Z,17.15
2022-12-18T11:52:41.588Z,17.25
2022-12-18T11:56:25.861Z,16.80
2022-12-18T11:59:51.863Z,16.90
2022-12-18T12:02:59.161Z,20.95
2022-12-18T12:07:00.064Z,17.85
2022-12-18T12:10:40.035Z,19.30
2022-12-18T12:14:11.855Z,19.23
2022-12-18T12:17:41.779Z,19.80
2022-12-18T12:21:10.891Z,20.25
2022-12-18T12:24:57.762Z,20.08
2022-12-18T12:28:52.834Z,18.45
2022-12-18T12:32:10.505Z,18.23
2022-12-18T12:35:27.062Z,19.93
2022-12-18T12:38:51.425Z,17.62
2022-12-18T12:42:15.785Z,16.25
2022-12-18T12:45:32.823Z,17.95
2022-12-18T12:48:46.817Z,15.52
2022-12-18T12:52:18.899Z,18.33
2022-12-18T12:55:27.944Z,20.98
2022-12-18T12:58:37.911Z,16.35
2022-12-18T13:02:09.913Z,18.20
2022-12-18T13:05:21.981Z,17.73
2022-12-18T13:08:28.138Z,17.10
2022-12-18T13:12:06.919Z,15.90
2022-12-18T13:15:24.790Z,19.80
2022-12-18T13:18:30.214Z,20.58
2022-12-18T13:21:36.767Z,17.30
2022-12-18T13:24:44.511Z,16.80
2022-12-18T13:28:19.914Z,17.42
2022-12-18T13:31:42.352Z,17.23
2022-12-18T13:35:27.843Z,18.60
2022-12-18T13:38:45.035Z,19.55
2022-12-18T13:41:51.405Z,17.20
2022-12-18T13:45:00.000Z,19.90
2022-12-18T13:48:34.701Z,15.65
2022-12-18T13:51:45.638Z,15.80
2022-12-18T13:54:57.492Z,16.40
2022-12-18T13:58:07.126Z,16.90
2022-12-18T14:01:24.684Z,14.73
2022-12-18T14:04:39.795Z,18.80
2022-12-18T14:07:49.229Z,16.40
2022-12-18T14:11:13.818Z,18.35
2022-12-18T14:14:24.888Z,19.77
2022-12-18T14:17:35.012Z,20.75
2022-12-18T14:20:52.602Z,20.75
2022-12-18T14:24:06.028Z,17.55
2022-12-18T14:27:38.746Z,17.65
2022-12-18T14:30:58.917Z,16.40
2022-12-18T14:34:05.958Z,19.10
2022-12-18T14:37:16.870Z,18.55
2022-12-18T14:40:21.979Z,21.33
2022-12-18T14:43:30.063Z,20.40
2022-12-18T14:46:52.736Z,18.20
2022-12-18T14:53:33.040Z,17.65
2022-12-18T14:56:46.848Z,17.53
2022-12-18T14:59:54.336Z,18.67
2022-12-18T15:03:01.257Z,21.23
2022-12-18T15:06:27.577Z,25.20
2022-12-18T15:10:21.834Z,24.92
2022-12-18T15:13:26.251Z,25.10
2022-12-18T15:16:30.490Z,27.00
2022-12-18T15:19:41.724Z,27.50
2022-12-18T15:22:52.171Z,34.77
2022-12-18T15:26:10.009Z,31.40
2022-12-18T15:29:31.830Z,30.95
2022-12-18T15:32:50.812Z,31.52
2022-12-18T15:36:06.568Z,29.40
2022-12-18T15:39:14.243Z,26.92
2022-12-18T15:42:36.619Z,29.60
2022-12-18T15:45:56.080Z,28.70
2022-12-18T15:49:02.477Z,30.70
2022-12-18T15:52:08.316Z,33.40
2022-12-18T15:55:37.003Z,32.95
2022-12-18T16:02:16.984Z,31.80
2022-12-18T16:05:21.672Z,34.15
2022-12-18T16:08:43.084Z,32.38
2022-12-18T16:11:51.757Z,33.30
2022-12-18T16:14:59.837Z,33.08
2022-12-18T16:18:13.329Z,33.30
2022-12-18T16:21:17.222Z,32.72
2022-12-18T16:24:37.241Z,34.97
2022-12-18T16:27:46.722Z,33.95
2022-12-18T16:30:54.171Z,36.92
2022-12-18T16:34:40.785Z,37.85
2022-12-18T16:41:37.712Z,35.72
2022-12-18T16:44:45.759Z,30.52
2022-12-18T16:47:52.892Z,31.40
2022-12-18T16:51:03.967Z,33.33
2022-12-18T16:54:27.767Z,35.28
2022-12-18T16:57:31.893Z,38.38
2022-12-18T17:00:43.000Z,38.33
2022-12-18T17:03:56.660Z,41.63
2022-12-18T17:07:13.046Z,38.08
2022-12-18T17:10:17.322Z,37.63
2022-12-18T17:13:25.560Z,32.88
2022-12-18T17:16:29.851Z,30.62
2022-12-18T17:19:40.754Z,32.90
2022-12-18T17:22:43.984Z,30.02
2022-12-18T17:25:57.875Z,31.27
2022-12-18T17:29:06.044Z,30.45
2022-12-18T17:32:12.748Z,27.80
2022-12-18T17:35:16.446Z,27.25
2022-12-18T17:38:23.991Z,27.48
2022-12-18T17:41:33.240Z,27.25
2022-12-18T17:44:37.645Z,30.33
2022-12-18T17:47:40.860Z,33.33
2022-12-18T17:50:47.668Z,32.38
2022-12-18T17:53:57.385Z,30.07
2022-12-18T17:57:14.672Z,31.08
2022-12-18T18:00:21.929Z,30.33
2022-12-18T18:03:27.124Z,32.50
2022-12-18T18:06:38.996Z,32.13
2022-12-18T18:09:48.109Z,32.85
2022-12-18T18:13:14.254Z,34.58
2022-12-18T18:16:22.977Z,31.40
2022-12-18T18:19:32.925Z,30.15
2022-12-18T18:22:40.867Z,31.48
2022-12-18T18:25:53.634Z,31.87
2022-12-18T18:29:07.867Z,27.50
2022-12-18T18:32:19.758Z,27.35
2022-12-18T18:35:52.399Z,28.20
2022-12-18T18:39:06.685Z,25.98
2022-12-18T18:42:19.663Z,27.80
2022-12-18T18:45:27.972Z,32.60
2022-12-18T18:48:39.749Z,35.55
2022-12-18T18:51:51.822Z,36.13
2022-12-18T18:55:12.046Z,35.47
2022-12-18T18:58:23.329Z,37.93
2022-12-18T19:01:39.816Z,39.75
2022-12-18T19:04:51.972Z,40.20
2022-12-18T19:07:57.761Z,41.47
2022-12-18T19:11:31.745Z,43.45
2022-12-18T19:14:39.451Z,48.83
2022-12-18T19:17:47.437Z,46.40
2022-12-18T19:21:05.629Z,42.62
2022-12-18T19:24:14.123Z,45.47
2022-12-18T19:27:20.948Z,46.78
2022-12-18T19:30:26.528Z,44.50
2022-12-18T19:33:43.676Z,44.97
2022-12-18T19:37:00.150Z,43.10
2022-12-18T19:40:19.788Z,42.00
2022-12-18T19:43:30.708Z,41.88
2022-12-18T19:46:34.602Z,40.03
2022-12-18T19:49:44.347Z,41.45
2022-12-18T19:52:57.010Z,39.55
2022-12-18T19:56:14.887Z,40.58
2022-12-18T19:59:19.482Z,39.72
2022-12-18T20:02:26.866Z,41.77
2022-12-18T20:05:35.800Z,45.50
2022-12-18T20:08:44.160Z,46.90
2022-12-18T20:11:55.858Z,43.73
2022-12-18T20:15:05.701Z,44.90
2022-12-18T20:18:10.900Z,43.95
2022-12-18T20:21:14.860Z,45.95
2022-12-18T20:24:37.752Z,46.83
2022-12-18T20:27:44.892Z,48.45
2022-12-18T20:31:03.045Z,50.53
2022-12-18T20:34:09.492Z,49.97
2022-12-18T20:37:31.718Z,60.80
2022-12-18T20:40:36.649Z,66.45
2022-12-18T20:43:44.700Z,71.03
2022-12-18T20:46:58.048Z,70.87
2022-12-18T20:50:16.700Z,65.07
2022-12-18T20:53:19.757Z,70.45
2022-12-18T20:56:25.188Z,67.57
2022-12-18T20:59:37.683Z,73.85
2022-12-18T21:02:43.828Z,71.10
2022-12-18T21:05:46.866Z,70.87
2022-12-18T21:08:50.849Z,72.62
2022-12-18T21:12:20.954Z,71.53
2022-12-18T21:15:32.885Z,72.43
2022-12-18T21:18:57.949Z,69.57
2022-12-18T21:22:02.725Z,68.82
2022-12-18T21:25:05.872Z,68.30
2022-12-18T21:28:09.443Z,61.53
2022-12-18T21:31:13.879Z,60.47
2022-12-18T21:34:25.610Z,54.47
2022-12-18T21:37:30.525Z,47.70
2022-12-18T21:40:34.918Z,47.20
2022-12-18T21:44:02.817Z,46.03
2022-12-18T21:47:22.188Z,49.20
2022-12-18T21:50:34.749Z,50.80
2022-12-18T21:53:43.063Z,53.53
2022-12-18T21:56:58.670Z,55.88
2022-12-18T22:00:02.271Z,57.03
2022-12-18T22:03:18.771Z,56.50
2022-12-18T22:06:25.790Z,50.35
2022-12-18T22:09:37.654Z,50.27
2022-12-18T22:12:54.867Z,54.10
2022-12-18T22:15:59.213Z,57.42
2022-12-18T22:19:05.723Z,57.10
2022-12-18T22:22:08.397Z,61.00
2022-12-18T22:25:16.124Z,62.22
2022-12-18T22:28:39.663Z,58.90
2022-12-18T22:31:45.891Z,60.22
2022-12-18T22:34:49.196Z,58.20
2022-12-18T22:38:08.621Z,56.88
2022-12-18T22:41:11.752Z,57.60
2022-12-18T22:44:15.007Z,55.53
2022-12-18T22:47:30.068Z,54.58
2022-12-18T22:50:34.894Z,49.10
2022-12-18T22:53:39.005Z,51.42
2022-12-18T22:56:51.646Z,50.55
2022-12-18T22:59:57.888Z,49.28
2022-12-18T23:03:07.430Z,50.80
2022-12-18T23:06:10.587Z,46.05
2022-12-18T23:09:20.853Z,46.35
2022-12-18T23:12:24.012Z,43.47
2022-12-18T23:15:28.157Z,43.28
2022-12-18T23:18:37.466Z,40.05
2022-12-18T23:21:42.519Z,40.83
2022-12-18T23:24:46.641Z,39.53
2022-12-18T23:27:50.863Z,36.97
2022-12-18T23:30:54.077Z,36.20
2022-12-18T23:33:59.297Z,35.83
2022-12-18T23:37:03.912Z,37.35
2022-12-18T23:40:07.813Z,37.50
2022-12-18T23:43:10.435Z,35.30
2022-12-18T23:46:26.090Z,35.28
2022-12-18T23:49:28.771Z,34.53
2022-12-18T23:52:31.930Z,33.93
2022-12-18T23:55:40.915Z,33.45
2022-12-18T23:58:45.451Z,33.63
